createdAt,value
2023-01-01T00:00:52.786Z,12.05
2023-01-01T00:02:59.096Z,12.11
2023-01-01T00:05:04.402Z,12.04
2023-01-01T00:10:14.064Z,11.87
2023-01-01T00:12:19.130Z,11.84
2023-01-01T00:14:24.426Z,11.81
2023-01-01T00:16:29.339Z,11.69
2023-01-01T00:18:34.494Z,11.58
2023-01-01T00:20:39.331Z,11.46
2023-01-01T00:22:54.352Z,11.56
2023-01-01T00:25:03.135Z,11.84
2023-01-01T00:27:08.237Z,11.79
2023-01-01T00:29:13.775Z,11.88
2023-01-01T00:31:21.438Z,12.13
2023-01-01T00:33:26.319Z,12.12
2023-01-01T00:35:32.639Z,12.19
2023-01-01T00:37:43.287Z,12.14
2023-01-01T00:39:51.631Z,11.91
2023-01-01T00:41:59.523Z,11.71
2023-01-01T00:44:04.968Z,11.65
2023-01-01T00:46:11.289Z,11.76
2023-01-01T00:48:16.248Z,11.91
2023-01-01T00:50:22.171Z,11.97
2023-01-01T00:52:27.054Z,12.11
2023-01-01T00:54:31.915Z,12.13
2023-01-01T00:56:37.319Z,12.04
2023-01-01T00:58:44.955Z,12.04
2023-01-01T01:01:05.794Z,11.96
2023-01-01T01:03:11.458Z,11.92
2023-01-01T01:05:16.769Z,11.82
2023-01-01T01:07:21.623Z,11.96
2023-01-01T01:09:26.511Z,11.83
2023-01-01T01:11:32.613Z,11.80
2023-01-01T01:13:38.063Z,11.74
2023-01-01T01:15:45.641Z,11.82
2023-01-01T01:17:52.301Z,12.01
2023-01-01T01:19:57.541Z,11.94
2023-01-01T01:22:02.456Z,11.78
2023-01-01T01:24:07.855Z,11.87
2023-01-01T01:26:15.650Z,11.89
2023-01-01T01:28:21.118Z,11.80
2023-01-01T01:30:26.548Z,11.98
2023-01-01T01:32:34.028Z,12.03
2023-01-01T01:34:39.251Z,12.02
2023-01-01T01:36:44.096Z,12.16
2023-01-01T01:38:50.016Z,12.07
2023-01-01T01:40:55.323Z,12.09
2023-01-01T01:43:00.194Z,11.93
2023-01-01T01:45:08.587Z,11.78
2023-01-01T01:47:19.184Z,11.56
2023-01-01T01:49:33.232Z,11.44
2023-01-01T01:51:43.231Z,11.29
2023-01-01T01:53:52.838Z,11.33
2023-01-01T01:56:02.804Z,11.49
2023-01-01T01:58:10.458Z,11.52
2023-01-01T02:00:17.857Z,11.78
2023-01-01T02:02:31.768Z,11.68
2023-01-01T02:04:39.475Z,11.57
2023-01-01T02:06:44.355Z,11.50
2023-01-01T02:08:50.318Z,11.33
2023-01-01T02:10:55.223Z,11.31
2023-01-01T02:13:00.389Z,11.14
2023-01-01T02:15:05.635Z,10.98
2023-01-01T02:17:17.817Z,10.93
2023-01-01T02:19:40.141Z,11.13
2023-01-01T02:22:02.383Z,11.23
2023-01-01T02:24:38.750Z,11.34
2023-01-01T02:26:59.677Z,11.30
2023-01-01T02:29:17.077Z,11.27
2023-01-01T02:31:29.352Z,11.13
2023-01-01T02:33:34.643Z,11.07
2023-01-01T02:35:43.915Z,10.98
2023-01-01T02:37:50.677Z,11.00
2023-01-01T02:39:59.424Z,11.16
2023-01-01T02:42:08.144Z,11.15
2023-01-01T02:44:16.488Z,11.04
2023-01-01T02:48:43.326Z,11.38
2023-01-01T02:50:49.126Z,11.26
2023-01-01T02:53:17.807Z,11.22
2023-01-01T02:55:37.190Z,11.11
2023-01-01T02:57:45.944Z,11.11
2023-01-01T03:00:17.619Z,11.27
2023-01-01T03:02:30.854Z,11.43
2023-01-01T03:04:50.966Z,11.61
2023-01-01T03:07:05.349Z,11.92
2023-01-01T03:09:23.690Z,12.08
2023-01-01T03:11:39.668Z,12.29
2023-01-01T03:13:50.472Z,12.27
2023-01-01T03:16:06.115Z,12.21
2023-01-01T03:18:18.292Z,12.30
2023-01-01T03:20:31.550Z,12.28
2023-01-01T03:24:50.906Z,12.11
2023-01-01T03:27:00.184Z,12.16
2023-01-01T03:29:10.251Z,12.20
2023-01-01T03:31:22.892Z,12.26
2023-01-01T03:33:33.170Z,12.33
2023-01-01T03:35:47.692Z,12.26
2023-01-01T03:37:58.888Z,12.32
2023-01-01T03:40:05.824Z,12.32
2023-01-01T03:42:20.433Z,12.13
2023-01-01T03:44:31.772Z,12.26
2023-01-01T03:51:17.361Z,12.05
2023-01-01T03:53:34.927Z,11.95
2023-01-01T03:55:46.133Z,12.04
2023-01-01T03:58:03.955Z,12.11
2023-01-01T04:00:16.417Z,12.25
2023-01-01T04:02:27.388Z,12.36
2023-01-01T04:04:34.179Z,12.28
2023-01-01T04:06:39.505Z,12.26
2023-01-01T04:08:44.468Z,12.43
2023-01-01T04:10:56.320Z,12.50
2023-01-01T04:13:01.608Z,12.44
2023-01-01T04:15:08.164Z,12.43
2023-01-01T04:17:15.538Z,12.48
2023-01-01T04:19:23.247Z,12.63
2023-01-01T04:21:28.092Z,12.64
2023-01-01T04:23:32.933Z,12.76
2023-01-01T04:25:38.012Z,12.91
2023-01-01T04:27:44.239Z,12.85
2023-01-01T04:29:49.117Z,12.83
2023-01-01T04:31:54.036Z,12.67
2023-01-01T04:33:59.022Z,12.58
2023-01-01T04:36:11.477Z,12.58
2023-01-01T04:38:16.758Z,12.58
2023-01-01T04:40:21.728Z,12.57
2023-01-01T04:42:26.932Z,12.49
2023-01-01T04:44:32.147Z,12.68
2023-01-01T04:46:37.053Z,12.57
2023-01-01T04:48:43.360Z,12.67
2023-01-01T04:50:56.143Z,12.54
2023-01-01T04:53:04.441Z,12.55
2023-01-01T04:55:10.685Z,12.57
2023-01-01T04:57:16.171Z,12.56
2023-01-01T04:59:21.016Z,12.56
2023-01-01T05:01:28.444Z,12.46
2023-01-01T05:03:34.234Z,12.50
2023-01-01T05:05:39.094Z,12.43
2023-01-01T05:07:44.718Z,12.44
2023-01-01T05:09:52.190Z,12.38
2023-01-01T05:11:58.198Z,12.52
2023-01-01T05:14:05.468Z,12.42
2023-01-01T05:16:15.018Z,12.30
2023-01-01T05:18:19.965Z,12.38
2023-01-01T05:20:25.049Z,12.25
2023-01-01T05:22:29.950Z,12.27
2023-01-01T05:24:36.495Z,12.17
2023-01-01T05:26:46.547Z,12.31
2023-01-01T05:28:52.704Z,12.32
2023-01-01T05:30:57.980Z,12.41
2023-01-01T05:33:02.833Z,12.43
2023-01-01T05:35:09.241Z,12.49
2023-01-01T05:37:14.091Z,12.41
2023-01-01T05:39:18.926Z,12.48
2023-01-01T05:41:25.328Z,12.53
2023-01-01T05:43:33.053Z,12.48
2023-01-01T05:45:37.978Z,12.44
2023-01-01T05:47:42.939Z,12.37
2023-01-01T05:49:48.320Z,12.37
2023-01-01T05:51:55.828Z,12.36
2023-01-01T05:54:02.050Z,12.31
2023-01-01T05:56:09.211Z,12.33
2023-01-01T05:58:14.048Z,12.43
2023-01-01T06:00:22.412Z,12.47
2023-01-01T06:02:27.366Z,12.59
2023-01-01T06:04:32.433Z,12.42
2023-01-01T06:06:37.594Z,12.44
2023-01-01T06:08:43.585Z,12.47
2023-01-01T06:10:48.435Z,12.28
2023-01-01T06:12:54.791Z,12.12
2023-01-01T06:14:59.645Z,12.15
2023-01-01T06:17:07.145Z,12.15
2023-01-01T06:19:12.362Z,12.21
2023-01-01T06:21:20.138Z,12.33
2023-01-01T06:23:25.277Z,12.24
2023-01-01T06:25:30.166Z,12.23
2023-01-01T06:27:35.267Z,12.34
2023-01-01T06:29:40.140Z,12.53
2023-01-01T06:31:45.011Z,12.49
2023-01-01T06:33:54.381Z,12.35
2023-01-01T06:35:59.481Z,12.37
2023-01-01T06:38:04.416Z,12.35
2023-01-01T06:40:11.811Z,12.34
2023-01-01T06:42:16.950Z,12.21
2023-01-01T06:44:22.154Z,12.30
2023-01-01T06:46:29.634Z,12.18
2023-01-01T06:48:37.841Z,12.06
2023-01-01T06:50:45.608Z,11.96
2023-01-01T06:52:50.649Z,11.99
2023-01-01T06:54:55.555Z,11.93
2023-01-01T06:57:00.697Z,11.98
2023-01-01T06:59:05.596Z,11.98
2023-01-01T07:01:14.606Z,12.09
2023-01-01T07:03:19.948Z,12.07
2023-01-01T07:05:25.285Z,12.01
2023-01-01T07:07:36.127Z,11.95
2023-01-01T07:09:41.129Z,11.98
2023-01-01T07:11:45.993Z,12.04
2023-01-01T07:13:51.390Z,12.01
2023-01-01T07:15:56.758Z,12.20
2023-01-01T07:18:01.677Z,12.19
2023-01-01T07:20:08.053Z,12.19
2023-01-01T07:22:13.865Z,12.09
2023-01-01T07:24:21.433Z,12.05
2023-01-01T07:26:28.731Z,11.95
2023-01-01T07:28:33.605Z,11.89
2023-01-01T07:30:38.462Z,11.86
2023-01-01T07:32:43.319Z,11.92
2023-01-01T07:34:50.832Z,12.09
2023-01-01T07:36:56.658Z,12.12
2023-01-01T07:39:01.647Z,12.20
2023-01-01T07:41:10.034Z,12.34
2023-01-01T07:43:15.167Z,12.45
2023-01-01T07:45:20.358Z,12.41
2023-01-01T07:47:28.310Z,12.44
2023-01-01T07:49:33.265Z,12.54
2023-01-01T07:51:38.466Z,12.56
2023-01-01T07:53:43.388Z,12.58
2023-01-01T07:55:48.813Z,12.63
2023-01-01T07:57:56.716Z,12.69
2023-01-01T08:00:01.577Z,12.78
2023-01-01T08:02:07.024Z,12.79
2023-01-01T08:04:12.201Z,12.83
2023-01-01T08:06:17.300Z,12.83
2023-01-01T08:08:22.184Z,12.85
2023-01-01T08:10:27.091Z,12.89
2023-01-01T08:12:32.222Z,12.99
2023-01-01T08:14:39.652Z,13.07
2023-01-01T08:16:44.611Z,13.10
2023-01-01T08:18:50.540Z,13.12
2023-01-01T08:20:57.510Z,13.22
2023-01-01T08:23:07.062Z,13.23
2023-01-01T08:25:12.910Z,13.22
2023-01-01T08:27:19.848Z,13.28
2023-01-01T08:29:25.538Z,13.35
2023-01-01T08:31:33.197Z,13.25
2023-01-01T08:33:38.159Z,13.28
2023-01-01T08:35:50.329Z,13.17
2023-01-01T08:37:58.952Z,13.21
2023-01-01T08:40:03.920Z,13.24
2023-01-01T08:42:12.358Z,13.19
2023-01-01T08:44:17.624Z,13.20
2023-01-01T08:46:22.640Z,13.16
2023-01-01T08:48:31.100Z,13.22
2023-01-01T08:50:36.074Z,13.22
2023-01-01T08:52:40.933Z,13.21
2023-01-01T08:54:45.925Z,13.23
2023-01-01T08:56:50.962Z,13.30
2023-01-01T08:59:03.850Z,13.33
2023-01-01T09:01:11.107Z,13.37
2023-01-01T09:03:16.754Z,13.51
2023-01-01T09:05:25.453Z,13.57
2023-01-01T09:07:30.347Z,13.71
2023-01-01T09:09:35.215Z,13.83
2023-01-01T09:11:40.118Z,13.92
2023-01-01T09:13:45.351Z,13.96
2023-01-01T09:15:50.943Z,14.10
2023-01-01T09:17:55.823Z,14.15
2023-01-01T09:20:00.669Z,14.20
2023-01-01T09:22:12.594Z,14.18
2023-01-01T09:24:17.499Z,14.25
2023-01-01T09:26:22.496Z,14.20
2023-01-01T09:28:29.645Z,14.19
2023-01-01T09:30:34.958Z,14.21
2023-01-01T09:32:40.499Z,14.33
2023-01-01T09:34:50.466Z,14.33
2023-01-01T09:36:57.379Z,14.35
2023-01-01T09:39:06.810Z,14.40
2023-01-01T09:41:25.596Z,14.50
2023-01-01T09:43:43.547Z,14.47
2023-01-01T09:46:01.006Z,14.35
2023-01-01T09:48:12.205Z,14.31
2023-01-01T09:50:21.581Z,14.30
2023-01-01T09:52:28.501Z,14.19
2023-01-01T09:54:41.678Z,14.15
2023-01-01T09:56:48.748Z,14.14
2023-01-01T09:58:56.163Z,14.13
2023-01-01T10:01:12.216Z,14.09
2023-01-01T10:03:33.711Z,14.03
2023-01-01T10:05:55.219Z,14.06
2023-01-01T10:08:08.589Z,14.07
2023-01-01T10:10:31.473Z,14.02
2023-01-01T10:12:48.377Z,14.00
2023-01-01T10:15:03.821Z,14.03
2023-01-01T10:17:18.878Z,13.94
2023-01-01T10:19:33.005Z,14.05
2023-01-01T10:21:47.158Z,14.05
2023-01-01T10:23:58.125Z,14.05
2023-01-01T10:26:12.497Z,14.10
2023-01-01T10:28:26.616Z,14.15
2023-01-01T10:30:33.154Z,14.15
2023-01-01T10:32:40.994Z,14.12
2023-01-01T10:34:45.909Z,14.18
2023-01-01T10:36:53.017Z,14.17
2023-01-01T10:38:57.880Z,14.18
2023-01-01T10:41:18.960Z,14.24
2023-01-01T10:43:24.820Z,14.23
2023-01-01T10:45:35.459Z,14.24
2023-01-01T10:47:40.517Z,14.21
2023-01-01T10:50:01.498Z,14.24
2023-01-01T10:52:07.246Z,14.23
2023-01-01T10:54:38.103Z,14.20
2023-01-01T10:56:46.907Z,14.23
2023-01-01T10:58:54.932Z,14.16
2023-01-01T11:01:05.434Z,14.17
2023-01-01T11:03:22.392Z,14.19
2023-01-01T11:05:27.401Z,14.19
2023-01-01T11:07:36.802Z,14.17
2023-01-01T11:09:52.145Z,14.11
2023-01-01T11:12:54.616Z,14.13
2023-01-01T11:14:53.750Z,14.12
2023-01-01T11:17:00.482Z,14.15
2023-01-01T11:19:08.187Z,14.14
2023-01-01T11:21:13.921Z,14.13
2023-01-01T11:23:34.125Z,14.18
2023-01-01T11:25:38.973Z,14.20
2023-01-01T11:27:46.476Z,14.19
2023-01-01T11:29:54.751Z,14.19
2023-01-01T11:32:02.491Z,14.20
2023-01-01T11:34:24.456Z,14.33
2023-01-01T11:36:33.669Z,14.38
2023-01-01T11:38:38.684Z,14.45
2023-01-01T11:40:51.178Z,14.46
2023-01-01T11:43:02.218Z,14.48
2023-01-01T11:45:15.872Z,14.51
2023-01-01T11:47:29.284Z,14.63
2023-01-01T11:49:35.084Z,14.68
2023-01-01T11:51:40.001Z,14.70
2023-01-01T11:53:45.757Z,14.67
2023-01-01T11:55:55.045Z,14.65
2023-01-01T11:58:19.763Z,14.65
2023-01-01T12:00:26.182Z,14.63
2023-01-01T12:02:39.412Z,14.62
2023-01-01T12:04:53.864Z,14.67
2023-01-01T12:07:06.474Z,14.67
2023-01-01T12:09:20.588Z,14.67
2023-01-01T12:11:35.274Z,14.64
2023-01-01T12:13:52.480Z,14.66
2023-01-01T12:16:10.857Z,14.69
2023-01-01T12:18:26.857Z,14.62
2023-01-01T12:20:38.499Z,14.67
2023-01-01T12:22:45.631Z,14.59
2023-01-01T12:24:52.873Z,14.60
2023-01-01T12:27:20.219Z,14.55
2023-01-01T12:30:05.498Z,14.55
2023-01-01T12:32:26.304Z,14.55
2023-01-01T12:34:42.086Z,14.50
2023-01-01T12:36:58.784Z,14.54
2023-01-01T12:39:57.932Z,14.52
2023-01-01T12:42:16.115Z,14.47
2023-01-01T12:44:34.980Z,14.46
2023-01-01T12:46:54.107Z,14.49
2023-01-01T12:49:29.732Z,14.53
2023-01-01T12:51:47.962Z,14.53
2023-01-01T12:54:03.687Z,14.50
2023-01-01T12:56:23.462Z,14.50
2023-01-01T12:58:37.716Z,14.47
2023-01-01T13:00:55.584Z,14.49
2023-01-01T13:03:09.880Z,14.48
2023-01-01T13:05:26.346Z,14.46
2023-01-01T13:07:42.037Z,14.41
2023-01-01T13:09:50.383Z,14.37
2023-01-01T13:12:04.427Z,14.42
2023-01-01T13:14:11.250Z,14.38
2023-01-01T13:16:34.551Z,14.48
2023-01-01T13:18:43.938Z,14.45
2023-01-01T13:21:09.693Z,14.46
2023-01-01T13:23:52.841Z,14.43
2023-01-01T13:26:35.577Z,14.42
2023-01-01T13:28:41.880Z,14.43
2023-01-01T13:30:55.082Z,14.47
2023-01-01T13:33:26.380Z,14.47
2023-01-01T13:35:36.658Z,14.42
2023-01-01T13:37:51.611Z,14.47
2023-01-01T13:40:00.059Z,14.43
2023-01-01T13:42:06.152Z,14.41
2023-01-01T13:44:25.671Z,14.33
2023-01-01T13:46:53.917Z,14.30
2023-01-01T13:49:27.793Z,14.35
2023-01-01T13:52:25.931Z,14.30
2023-01-01T13:55:19.156Z,14.36
2023-01-01T13:58:03.931Z,14.28
2023-01-01T14:00:29.912Z,14.31
2023-01-01T14:02:40.672Z,14.33
2023-01-01T14:04:52.785Z,14.30
2023-01-01T14:07:33.013Z,14.32
2023-01-01T14:09:32.306Z,14.33
2023-01-01T14:11:38.793Z,14.38
2023-01-01T14:13:45.859Z,14.39
2023-01-01T14:15:58.464Z,14.35
2023-01-01T14:18:08.912Z,14.30
2023-01-01T14:20:20.077Z,14.23
2023-01-01T14:22:30.346Z,14.23
2023-01-01T14:24:40.617Z,14.19
2023-01-01T14:26:46.679Z,14.14
2023-01-01T14:28:57.312Z,14.12
2023-01-01T14:31:11.063Z,14.09
2023-01-01T14:33:26.808Z,14.00
2023-01-01T14:35:34.625Z,14.03
2023-01-01T14:37:44.159Z,14.00
2023-01-01T14:39:50.681Z,13.95
2023-01-01T14:42:01.000Z,13.93
2023-01-01T14:44:13.315Z,13.94
2023-01-01T14:46:23.125Z,13.89
2023-01-01T14:48:29.274Z,13.79
2023-01-01T14:50:37.141Z,13.82
2023-01-01T14:52:46.675Z,13.74
2023-01-01T14:54:53.031Z,13.70
2023-01-01T14:56:59.919Z,13.66
2023-01-01T14:59:16.489Z,13.65
2023-01-01T15:01:28.202Z,13.59
2023-01-01T15:03:35.465Z,13.52
2023-01-01T15:05:44.561Z,13.48
2023-01-01T15:08:01.756Z,13.44
2023-01-01T15:10:09.373Z,13.46
2023-01-01T15:12:18.686Z,13.42
2023-01-01T15:14:37.050Z,13.29
2023-01-01T15:16:43.871Z,13.14
2023-01-01T15:18:51.772Z,13.01
2023-01-01T15:20:59.196Z,12.94
2023-01-01T15:23:10.343Z,12.94
2023-01-01T15:25:19.321Z,13.00
2023-01-01T15:27:30.621Z,13.06
2023-01-01T15:29:41.232Z,13.08
2023-01-01T15:31:52.817Z,13.13
2023-01-01T15:33:58.345Z,13.23
2023-01-01T15:36:05.780Z,13.09
2023-01-01T15:38:24.127Z,12.96
2023-01-01T15:40:38.917Z,13.03
2023-01-01T15:42:48.987Z,13.01
2023-01-01T15:44:54.217Z,13.06
2023-01-01T15:47:16.503Z,13.04
2023-01-01T15:49:31.527Z,13.13
2023-01-01T15:51:37.430Z,13.16
2023-01-01T15:53:57.717Z,13.06
2023-01-01T15:56:08.674Z,13.15
2023-01-01T15:58:28.939Z,13.14
2023-01-01T16:00:44.051Z,13.12
2023-01-01T16:02:50.498Z,13.10
2023-01-01T16:04:56.942Z,13.16
2023-01-01T16:07:03.305Z,13.12
2023-01-01T16:09:16.029Z,13.07
2023-01-01T16:11:21.767Z,13.07
2023-01-01T16:13:27.444Z,13.16
2023-01-01T16:15:33.864Z,13.16
2023-01-01T16:17:42.235Z,13.18
2023-01-01T16:19:51.656Z,13.16
2023-01-01T16:21:57.643Z,13.07
2023-01-01T16:24:04.022Z,12.97
2023-01-01T16:26:14.228Z,12.88
2023-01-01T16:28:19.906Z,12.78
2023-01-01T16:30:30.947Z,12.67
2023-01-01T16:32:38.608Z,12.55
2023-01-01T16:34:44.875Z,12.52
2023-01-01T16:36:51.879Z,12.47
2023-01-01T16:38:57.722Z,12.39
2023-01-01T16:41:03.312Z,12.26
2023-01-01T16:43:20.111Z,12.17
2023-01-01T16:45:26.109Z,12.10
2023-01-01T16:47:32.426Z,12.02
2023-01-01T16:49:38.145Z,12.01
2023-01-01T16:51:44.655Z,11.86
2023-01-01T16:53:51.638Z,11.77
2023-01-01T16:55:58.443Z,11.67
2023-01-01T16:58:46.855Z,11.62
2023-01-01T17:00:33.527Z,11.52
2023-01-01T17:02:43.003Z,11.47
2023-01-01T17:04:49.065Z,11.45
2023-01-01T17:06:55.835Z,11.34
2023-01-01T17:09:03.002Z,11.33
2023-01-01T17:11:13.925Z,11.31
2023-01-01T17:13:19.957Z,11.32
2023-01-01T17:15:27.049Z,11.33
2023-01-01T17:17:36.801Z,11.47
2023-01-01T17:19:44.306Z,11.56
2023-01-01T17:21:52.054Z,11.60
2023-01-01T17:23:58.688Z,11.62
2023-01-01T17:26:10.836Z,11.66
2023-01-01T17:28:16.761Z,11.69
2023-01-01T17:30:22.809Z,11.82
2023-01-01T17:32:28.600Z,11.93
2023-01-01T17:34:37.739Z,11.88
2023-01-01T17:36:46.529Z,11.92
2023-01-01T17:38:52.786Z,11.94
2023-01-01T17:41:07.136Z,11.89
2023-01-01T17:43:13.802Z,11.75
2023-01-01T17:45:19.705Z,11.67
2023-01-01T17:47:30.875Z,11.75
2023-01-01T17:49:44.848Z,11.81
2023-01-01T17:51:51.071Z,11.85
2023-01-01T17:53:58.626Z,11.87
2023-01-01T17:56:04.113Z,11.77
2023-01-01T17:58:10.487Z,11.68
2023-01-01T18:00:19.455Z,11.60
2023-01-01T18:02:26.124Z,11.53
2023-01-01T18:04:33.115Z,11.47
2023-01-01T18:06:46.874Z,11.48
2023-01-01T18:08:59.499Z,11.47
2023-01-01T18:11:05.713Z,11.62
2023-01-01T18:13:12.920Z,11.75
2023-01-01T18:15:21.858Z,11.72
2023-01-01T18:17:27.929Z,11.62
2023-01-01T18:19:33.696Z,11.55
2023-01-01T18:21:43.709Z,11.47
2023-01-01T18:23:50.543Z,11.64
2023-01-01T18:25:57.031Z,11.66
2023-01-01T18:28:03.989Z,11.62
2023-01-01T18:30:11.792Z,11.58
2023-01-01T18:32:18.297Z,11.57
2023-01-01T18:34:24.495Z,11.60
2023-01-01T18:36:34.574Z,11.59
2023-01-01T18:38:48.665Z,11.49
2023-01-01T18:41:19.558Z,11.46
2023-01-01T18:43:27.698Z,11.47
2023-01-01T18:45:33.863Z,11.47
2023-01-01T18:47:40.304Z,11.39
2023-01-01T18:49:52.276Z,11.36
2023-01-01T18:52:09.120Z,11.37
2023-01-01T18:54:18.111Z,11.40
2023-01-01T18:56:27.427Z,11.39
2023-01-01T18:58:35.048Z,11.34
2023-01-01T19:00:42.239Z,11.19
2023-01-01T19:02:56.601Z,11.03
2023-01-01T19:05:18.978Z,10.85
2023-01-01T19:07:25.815Z,10.75
2023-01-01T19:09:33.828Z,10.68
2023-01-01T19:11:41.999Z,10.61
2023-01-01T19:13:49.708Z,10.48
2023-01-01T19:16:01.059Z,10.40
2023-01-01T19:18:16.887Z,10.42
2023-01-01T19:20:26.814Z,10.39
2023-01-01T19:22:34.181Z,10.30
2023-01-01T19:24:43.851Z,10.13
2023-01-01T19:26:50.443Z,10.04
2023-01-01T19:29:01.052Z,10.01
2023-01-01T19:31:09.036Z,9.86
2023-01-01T19:33:16.010Z,9.86
2023-01-01T19:35:22.421Z,9.77
2023-01-01T19:37:29.274Z,9.62
2023-01-01T19:39:36.757Z,9.60
2023-01-01T19:41:45.628Z,9.71
2023-01-01T19:43:52.759Z,9.61
2023-01-01T19:45:58.443Z,9.57
2023-01-01T19:48:04.897Z,9.62
2023-01-01T19:50:12.823Z,9.50
2023-01-01T19:52:17.928Z,9.60
2023-01-01T19:54:24.363Z,9.75
2023-01-01T19:56:30.720Z,9.77
2023-01-01T19:58:39.433Z,9.88
2023-01-01T20:00:45.601Z,9.93
2023-01-01T20:02:53.399Z,9.83
2023-01-01T20:05:00.452Z,9.73
2023-01-01T20:07:06.360Z,9.68
2023-01-01T20:09:12.845Z,9.70
2023-01-01T20:11:18.668Z,9.64
2023-01-01T20:13:26.996Z,9.64
2023-01-01T20:15:35.576Z,9.65
2023-01-01T20:17:41.585Z,9.71
2023-01-01T20:19:47.172Z,9.74
2023-01-01T20:22:05.676Z,9.86
2023-01-01T20:24:11.924Z,9.92
2023-01-01T20:26:18.093Z,9.90
2023-01-01T20:28:36.299Z,9.83
2023-01-01T20:30:45.147Z,9.82
2023-01-01T20:32:51.826Z,9.85
2023-01-01T20:34:58.838Z,9.92
2023-01-01T20:37:17.196Z,10.10
2023-01-01T20:39:23.187Z,10.33
2023-01-01T20:41:29.263Z,10.56
2023-01-01T20:43:36.727Z,10.76
2023-01-01T20:45:45.468Z,10.92
2023-01-01T20:47:52.671Z,10.78
2023-01-01T20:49:58.563Z,10.62
2023-01-01T20:52:04.399Z,10.57
2023-01-01T20:54:11.399Z,10.63
2023-01-01T20:56:17.241Z,10.71
2023-01-01T20:58:24.454Z,11.00
2023-01-01T21:02:41.543Z,10.94
2023-01-01T21:04:47.889Z,11.13
2023-01-01T21:06:55.371Z,11.29
2023-01-01T21:09:00.575Z,11.44
2023-01-01T21:11:06.851Z,11.54
2023-01-01T21:13:12.632Z,11.68
2023-01-01T21:15:18.344Z,11.78
2023-01-01T21:17:27.925Z,11.81
2023-01-01T21:19:36.068Z,11.74
2023-01-01T21:21:48.329Z,11.62
2023-01-01T21:23:56.159Z,11.64
2023-01-01T21:26:01.452Z,11.62
2023-01-01T21:28:15.150Z,11.63
2023-01-01T21:30:24.209Z,11.65
2023-01-01T21:32:40.064Z,11.66
2023-01-01T21:34:51.886Z,11.75
2023-01-01T21:37:04.814Z,11.77
2023-01-01T21:39:15.207Z,11.55
2023-01-01T21:41:25.457Z,11.67
2023-01-01T21:43:41.066Z,11.74
2023-01-01T21:45:49.850Z,11.90
2023-01-01T21:47:56.953Z,11.93
2023-01-01T21:50:07.044Z,11.91
2023-01-01T21:52:25.407Z,11.75
2023-01-01T21:54:36.853Z,11.58
2023-01-01T21:56:44.654Z,11.49
2023-01-01T21:59:09.318Z,11.45
2023-01-01T22:01:28.433Z,11.55
2023-01-01T22:03:35.778Z,11.58
2023-01-01T22:05:45.015Z,11.67
2023-01-01T22:07:58.052Z,11.43
2023-01-01T22:10:13.285Z,11.25
2023-01-01T22:12:27.004Z,11.19
2023-01-01T22:14:41.965Z,11.16
2023-01-01T22:16:49.694Z,11.16
2023-01-01T22:18:55.161Z,11.28
2023-01-01T22:21:04.803Z,11.34
2023-01-01T22:23:31.300Z,11.22
2023-01-01T22:25:36.638Z,11.12
2023-01-01T22:27:43.219Z,11.09
2023-01-01T22:29:50.580Z,11.09
2023-01-01T22:32:05.186Z,11.18
2023-01-01T22:34:23.313Z,11.43
2023-01-01T22:36:33.787Z,11.62
2023-01-01T22:38:39.217Z,11.80
2023-01-01T22:40:46.084Z,11.79
2023-01-01T22:42:53.210Z,11.83
2023-01-01T22:45:03.333Z,11.96
2023-01-01T22:47:14.824Z,12.08
2023-01-01T22:49:26.233Z,12.12
2023-01-01T22:51:43.377Z,12.08
2023-01-01T22:53:49.759Z,12.03
2023-01-01T22:55:55.319Z,12.00
2023-01-01T22:58:01.896Z,11.89
2023-01-01T23:00:11.546Z,11.87
2023-01-01T23:02:16.848Z,11.84
2023-01-01T23:04:23.500Z,11.80
2023-01-01T23:06:29.745Z,11.86
2023-01-01T23:08:39.300Z,11.75
2023-01-01T23:10:45.460Z,11.42
2023-01-01T23:12:54.191Z,11.28
2023-01-01T23:15:12.944Z,11.24
2023-01-01T23:17:20.763Z,11.26
2023-01-01T23:19:26.841Z,11.37
2023-01-01T23:21:35.484Z,11.45
2023-01-01T23:23:44.928Z,11.59
2023-01-01T23:25:52.223Z,11.66
2023-01-01T23:27:58.792Z,11.71
2023-01-01T23:30:05.837Z,11.64
2023-01-01T23:32:12.607Z,11.48
2023-01-01T23:34:20.932Z,11.40
2023-01-01T23:36:27.657Z,11.48
2023-01-01T23:38:34.355Z,11.58
2023-01-01T23:40:43.243Z,11.69
2023-01-01T23:42:49.011Z,11.80
2023-01-01T23:44:55.133Z,11.71
2023-01-01T23:47:04.129Z,11.62
2023-01-01T23:49:11.476Z,11.79
2023-01-01T23:51:18.522Z,11.95
2023-01-01T23:53:24.227Z,12.16
2023-01-01T23:55:30.366Z,12.20
2023-01-01T23:57:39.698Z,12.24
2023-01-01T23:59:49.523Z,12.37
